Terminal Aerodrome Forecast
Issued by NWS Cleveland, OH

Home | Current Version | Previous Version | Text Only | Print | Product List | Glossary Off
Versions: 1 2 3 4 5 6 7 8 9 10 11 12 13 14 15 16 17 18 19 20

000
FTUS41 KCLE 200540
TAFMFD
TAF
KMFD 200540Z 2006/2106 10010KT 6SM BR SCT004 OVC100
      TEMPO 2006/2008 BKN004
     FM200800 12010KT 4SM -RA BR OVC025
     FM201000 12010KT 2SM -RA BR OVC007
     FM201300 14010KT 4SM -RA BR OVC007
     FM201500 20010KT 4SM BR OVC004
     FM202100 20008KT P6SM OVC007
     FM202300 18006KT 4SM BR OVC012=

USA.gov is the U.S. government's official web portal to all federal, state and local government web resources and services.